Weather History for La Porte, IN

Change the Weather History Date:

Saturday, November 3, 2012

  Actual Average (KVPZ) Record (KVPZ)
Temperature  
Mean Temperature 36 °F 46 °F  
Max Temperature 40 °F 55 °F 73 °F (2008)
Min Temperature 31 °F 38 °F 18 °F (2006)
Degree Days  
Heating Degree Days 30 19  
Month to date heating degree days 55  
Since 1 July heating degree days 585  
Cooling Degree Days 0 0  
Month to date cooling degree days 0  
Year to date cooling degree days 713  
Moisture  
Dew Point 30 °F    
Average Humidity 79    
Maximum Humidity 92    
Minimum Humidity 62    
Precipitation  
Precipitation 0.00 in 0.13 in 0.14 in (2003)
Month to date precipitation 0.39  
Year to date precipitation 32.39  
Sea Level Pressure  
Sea Level Pressure 30.18 in    
Wind  
Wind Speed 5 mph ()    
Max Wind Speed 12 mph    
Max Gust Speed -    
Visibility 10.0 miles    
Events      
T = Trace of Precipitation, MM = Missing Value Source: Averaged Metar Reports

Daily Weather History Graph

Daily Weather History Graph

Search for Another Location

Airport:

Trip Planner

Search our weather history database for the weather conditions in past years. The results will help you decide how hot, cold, wet, or windy it might be!

Date:

Astronomy

Nov. 03, 2012 Rise Set
Actual Time 7:21 AM CDT 5:38 PM CDT
Civil Twilight 6:52 AM CDT 6:07 PM CDT
Nautical Twilight 6:19 AM CDT 6:40 PM CDT
Astronomical Twilight 5:47 AM CDT 7:12 PM CDT
Moon 9:18 PM CDT (11/3) 11:26 AM CDT (11/3)
Length of Visible Light 11h 14m
Length of Day
10h 16m
Waning Gibbous, 80% of the Moon is Illuminated
Nov 3
Waning Gibbous
Nov 6
Last Quarter
Nov 13
New
Nov 20
First Quarter
Nov 28
Full

Hourly Weather History & Observations

Time (CDT) Temp. Windchill Dew Point Humidity Pressure Visibility Wind Dir Wind Speed Gust Speed Precip Events Conditions
12:15 AM 38.3 °F 34.8 °F 31.5 °F 76% 30.14 in 10.0 mi NE 4.6 mph - N/A   Overcast
12:35 AM 38.3 °F 33.9 °F 31.1 °F 75% 30.15 in 10.0 mi NE 5.8 mph - N/A   Overcast
12:55 AM 37.6 °F 33.1 °F 32.4 °F 81% 30.15 in 10.0 mi ENE 5.8 mph - N/A   Overcast
1:15 AM 37.4 °F 33.8 °F 31.8 °F 80% 30.16 in 10.0 mi NE 4.6 mph - N/A   Overcast
1:35 AM 36.7 °F 32.0 °F 31.1 °F 80% 30.16 in 10.0 mi NE 5.8 mph - N/A   Overcast
1:55 AM 36.5 °F 32.7 °F 30.7 °F 80% 30.16 in 10.0 mi ENE 4.6 mph - N/A   Overcast
2:15 AM 36.5 °F 31.8 °F 30.7 °F 80% 30.17 in 10.0 mi ENE 5.8 mph - N/A   Overcast
2:35 AM 36.1 °F 31.4 °F 31.1 °F 82% 30.17 in 10.0 mi NE 5.8 mph - N/A   Overcast
2:55 AM 35.2 °F 29.5 °F 30.4 °F 82% 30.17 in 10.0 mi NE 6.9 mph - N/A   Mostly Cloudy
3:15 AM 34.7 °F 28.8 °F 30.2 °F 84% 30.16 in 10.0 mi NE 6.9 mph - N/A   Scattered Clouds
3:35 AM 33.8 °F 29.6 °F 30.0 °F 86% 30.16 in 10.0 mi NE 4.6 mph - N/A   Scattered Clouds
3:55 AM 33.3 °F 27.9 °F 30.0 °F 88% 30.16 in 10.0 mi NE 5.8 mph - N/A   Scattered Clouds
4:15 AM 33.1 °F 27.7 °F 29.8 °F 88% 30.15 in 10.0 mi ENE 5.8 mph - N/A   Mostly Cloudy
4:35 AM 33.1 °F 26.1 °F 30.0 °F 89% 30.14 in 10.0 mi ENE 8.1 mph - N/A   Mostly Cloudy
4:55 AM 32.9 °F 25.3 °F 29.8 °F 88% 30.14 in 10.0 mi ENE 9.2 mph - N/A   Scattered Clouds
5:15 AM 32.9 °F 25.3 °F 29.8 °F 88% 30.14 in 10.0 mi ENE 9.2 mph - N/A   Scattered Clouds
5:35 AM 32.9 °F 25.9 °F 29.5 °F 87% 30.16 in 10.0 mi ENE 8.1 mph - N/A   Mostly Cloudy
5:55 AM 32.2 °F 25.8 °F 29.3 °F 89% 30.16 in 10.0 mi ENE 6.9 mph - N/A   Mostly Cloudy
6:15 AM 32.4 °F 27.9 °F 29.3 °F 88% 30.17 in 10.0 mi ENE 4.6 mph - N/A   Scattered Clouds
6:35 AM 31.5 °F 25.8 °F 28.8 °F 90% 30.17 in 10.0 mi East 5.8 mph - N/A   Mostly Cloudy
6:55 AM 31.6 °F 26.0 °F 29.1 °F 90% 30.18 in 10.0 mi East 5.8 mph - N/A   Scattered Clouds
7:15 AM 31.5 °F - 28.9 °F 90% 30.19 in 10.0 mi Calm Calm - N/A   Clear
7:35 AM 31.8 °F 28.5 °F 29.3 °F 90% 30.19 in 10.0 mi ENE 3.5 mph - N/A   Clear
7:55 AM 32.0 °F - 29.5 °F 90% 30.19 in 10.0 mi Calm Calm - N/A   Clear
8:15 AM 32.0 °F 28.7 °F 30.0 °F 92% 30.20 in 10.0 mi East 3.5 mph - N/A   Clear
8:35 AM 32.0 °F 28.7 °F 30.0 °F 92% 30.20 in 10.0 mi East 3.5 mph - N/A   Scattered Clouds
8:55 AM 32.7 °F 28.3 °F 30.2 °F 90% 30.21 in 10.0 mi ENE 4.6 mph - N/A   Mostly Cloudy
9:15 AM 33.6 °F 29.4 °F 30.2 °F 87% 30.21 in 10.0 mi ENE 4.6 mph - N/A   Scattered Clouds
9:35 AM 34.7 °F 28.8 °F 30.2 °F 84% 30.21 in 10.0 mi ENE 6.9 mph - N/A   Clear
9:55 AM 35.2 °F 29.5 °F 30.7 °F 84% 30.21 in 10.0 mi East 6.9 mph - N/A   Clear
10:15 AM 36.3 °F 30.8 °F 31.8 °F 84% 30.22 in 10.0 mi East 6.9 mph - N/A   Clear
10:35 AM 38.1 °F 32.3 °F 31.6 °F 77% 30.21 in 10.0 mi ENE 8.1 mph - N/A   Clear
10:55 AM 38.7 °F 32.9 °F 31.1 °F 74% 30.21 in 10.0 mi East 8.1 mph - N/A   Scattered Clouds
11:15 AM 38.8 °F 33.8 °F 30.7 °F 73% 30.21 in 10.0 mi ENE 6.9 mph - N/A   Mostly Cloudy
11:35 AM 38.5 °F - 29.3 °F 70% 30.21 in 10.0 mi Calm Calm - N/A   Mostly Cloudy
11:55 AM 39.2 °F 35.9 °F 29.5 °F 68% 30.20 in 10.0 mi East 4.6 mph - N/A   Mostly Cloudy
12:15 PM 38.7 °F - 29.1 °F 69% 30.20 in 10.0 mi Calm Calm - N/A   Overcast
12:35 PM 39.2 °F 35.9 °F 28.9 °F 67% 30.20 in 10.0 mi North 4.6 mph - N/A   Overcast
12:55 PM 39.6 °F 37.4 °F 29.3 °F 67% 30.19 in 10.0 mi NE 3.5 mph - N/A   Overcast
1:15 PM 39.7 °F 37.6 °F 29.8 °F 68% 30.19 in 10.0 mi North 3.5 mph - N/A   Mostly Cloudy
1:35 PM 39.6 °F 36.3 °F 30.4 °F 70% 30.18 in 10.0 mi North 4.6 mph - N/A   Mostly Cloudy
1:55 PM 39.6 °F 36.3 °F 29.5 °F 67% 30.17 in 10.0 mi NNE 4.6 mph - N/A   Overcast
2:15 PM 39.6 °F 35.4 °F 29.3 °F 67% 30.17 in 10.0 mi NE 5.8 mph - N/A   Overcast
2:35 PM 40.1 °F 34.7 °F 29.8 °F 67% 30.17 in 10.0 mi North 8.1 mph - N/A   Mostly Cloudy
2:55 PM 39.9 °F 36.7 °F 29.7 °F 67% 30.17 in 10.0 mi North 4.6 mph - N/A   Mostly Cloudy
3:15 PM 40.1 °F 34.1 °F 29.8 °F 67% 30.16 in 10.0 mi North 9.2 mph - N/A   Overcast
3:35 PM 40.3 °F 34.9 °F 29.3 °F 65% 30.17 in 10.0 mi NNE 8.1 mph - N/A   Overcast
3:55 PM 40.5 °F 34.1 °F 28.4 °F 62% 30.17 in 10.0 mi NNE 10.4 mph - N/A   Overcast
4:15 PM 39.7 °F 33.7 °F 29.7 °F 67% 30.17 in 10.0 mi North 9.2 mph - N/A   Overcast
4:35 PM 39.4 °F 33.2 °F 29.5 °F 68% 30.16 in 10.0 mi NNE 9.2 mph - N/A   Mostly Cloudy
4:55 PM 39.2 °F 32.0 °F 29.8 °F 69% 30.17 in 10.0 mi North 11.5 mph - N/A   Overcast
5:15 PM 38.5 °F 33.4 °F 29.8 °F 71% 30.17 in 10.0 mi North 6.9 mph - N/A   Mostly Cloudy
5:35 PM 37.8 °F 31.8 °F 30.6 °F 75% 30.17 in 10.0 mi North 8.1 mph - N/A   Mostly Cloudy
5:55 PM 38.3 °F 32.5 °F 30.7 °F 74% 30.16 in 10.0 mi North 8.1 mph - N/A   Overcast
6:15 PM 38.3 °F 32.5 °F 30.7 °F 74% 30.16 in 10.0 mi North 8.1 mph - N/A   Overcast
6:35 PM 38.5 °F 32.7 °F 30.0 °F 72% 30.18 in 10.0 mi North 8.1 mph - N/A   Mostly Cloudy
6:55 PM 38.3 °F 31.9 °F 30.0 °F 72% 30.18 in 10.0 mi North 9.2 mph - N/A   Mostly Cloudy
7:15 PM 37.8 °F 31.8 °F 30.0 °F 74% 30.19 in 10.0 mi North 8.1 mph - N/A   Mostly Cloudy
7:35 PM 37.8 °F 33.3 °F 30.0 °F 74% 30.19 in 10.0 mi North 5.8 mph - N/A   Scattered Clouds
7:55 PM 37.0 °F 32.4 °F 30.0 °F 76% 30.19 in 10.0 mi NNE 5.8 mph - N/A   Scattered Clouds
8:15 PM 37.0 °F 31.6 °F 29.8 °F 75% 30.18 in 10.0 mi NNE 6.9 mph - N/A   Mostly Cloudy
8:35 PM 35.8 °F 30.9 °F 29.3 °F 77% 30.18 in 10.0 mi NNE 5.8 mph - N/A   Scattered Clouds
8:55 PM 34.7 °F 29.6 °F 29.5 °F 81% 30.18 in 10.0 mi NNE 5.8 mph - N/A   Scattered Clouds
9:15 PM 35.4 °F 30.5 °F 29.8 °F 80% 30.18 in 10.0 mi NNE 5.8 mph - N/A   Mostly Cloudy
9:35 PM 34.9 °F 32.0 °F 29.5 °F 81% 30.19 in 10.0 mi NE 3.5 mph - N/A   Scattered Clouds
9:55 PM 34.7 °F 31.8 °F 29.3 °F 81% 30.19 in 10.0 mi NE 3.5 mph - N/A   Scattered Clouds
10:15 PM 34.3 °F - 29.5 °F 82% 30.19 in 10.0 mi Calm Calm - N/A   Mostly Cloudy
10:35 PM 32.4 °F - 29.1 °F 88% 30.19 in 10.0 mi Calm Calm - N/A   Overcast
10:55 PM 33.8 °F - 30.9 °F 89% 30.19 in 10.0 mi Calm Calm - N/A   Overcast
11:15 PM 34.9 °F - 29.7 °F 81% 30.19 in 10.0 mi Calm Calm - N/A   Overcast
11:35 PM 33.8 °F - 30.2 °F 87% 30.19 in 10.0 mi Calm Calm - N/A   Overcast
11:55 PM 32.9 °F - 30.7 °F 92% 30.19 in 10.0 mi Calm Calm - N/A   Overcast